FABM

Bethlehem Airport

Bethlehem, South Africa
METAR FABM 171446Z 17007KT 9999 TS SCT035 FEW050CB 18/13 Q1023
Observed Flight Rules
Dec-17 @ 14:46 UTC (13 hours ago) Visual Flight Rules
Wind Visibility Clouds Conditions
170° at 7 knots 10,000+ meters
  • Scattered at 3,500' AGL
  • Few at 5,000' AGL
  • Thunderstorm
Temperatures Readings
Current 18°C / 64°F
Dewpoint 13°C / 55°F
Humidity 73%
Altimeter 30.21" Hg
Pressure 1023 hPa
Elevation 1682
METAR FABM 171446Z 17007KT 9999 TS SCT035 FEW050CB 18/13 Q1023
Observed Flight Rules
Dec-17 @ 14:46 UTC
(13 hours ago)
VFR
Wind Visibility
170° at 7 knots 10,000+ meters
Clouds
  • Scattered at 3,500' AGL
  • Few at 5,000' AGL
Conditions
  • Thunderstorm
Temperature Dewpoint
18°C / 64°F 13°C / 55°F
Humidity Altimeter Pressure
73% 30.21" Hg 1023 hPa